Weather at Reading Regional Carl A Spaatz Field

Public forecast

Using degrees Fahrenheit for public forecast. Weather courtesy of forecast.io.

Current aviation weather report (METAR) for Reading Regional Carl A Spaatz Field

Retrieved 2020/09/29 05:54 UTC (14 minutes ago):

KRDG 290554Z AUTO 14005KT 10SM BKN075 21/19 A2984 RMK AO2 SLP108 T02110189 10239 20206 58005

Aviation forecast (TAF) for Reading Regional Carl A Spaatz Field

Retrieved 2020/09/29 06:45 UTC (0 seconds ago):

TAF KRDG 290542Z 2906/3006 16004KT P6SM SCT015 TEMPO 2906/2909 BKN015 FM290900 15006KT P6SM OVC015 FM291200 17004KT 4SM BR OVC008 FM291600 19004KT P6SM -SHRA BKN025 OVC040 FM292300 VRB03KT 4SM -SHRA BR OVC015 FM300100 34006KT 3SM SHRA BR OVC008 FM300400 31008KT 3SM SHRA BR OVC012